createdAt,value
2018-04-02T00:00:36.578Z,5.1
2018-04-02T00:01:26.935Z,5.2
2018-04-02T00:02:16.501Z,5.2
2018-04-02T00:03:06.751Z,5.2
2018-04-02T00:03:56.826Z,5.1
2018-04-02T00:04:46.851Z,5.1
2018-04-02T00:05:36.246Z,5.1
2018-04-02T00:06:26.792Z,5.1
2018-04-02T00:07:16.550Z,5.1
2018-04-02T00:08:07.689Z,5.1
2018-04-02T00:08:57.340Z,5.2
2018-04-02T00:09:47.034Z,5.2
2018-04-02T00:10:37.583Z,5.3
2018-04-02T00:11:27.640Z,5.3
2018-04-02T00:12:17.143Z,5.3
2018-04-02T00:13:07.776Z,5.3
2018-04-02T00:13:57.540Z,5.3
2018-04-02T00:14:47.602Z,5.3
2018-04-02T00:15:37.960Z,5.2
2018-04-02T00:16:28.240Z,5.1
2018-04-02T00:17:18.070Z,5.1
2018-04-02T00:18:08.131Z,5.1
2018-04-02T00:18:57.906Z,5.1
2018-04-02T00:19:48.271Z,5.1
2018-04-02T00:20:38.051Z,5.1
2018-04-02T00:21:28.658Z,5.1
2018-04-02T00:22:18.053Z,5.1
2018-04-02T00:23:08.792Z,5
2018-04-02T00:23:58.609Z,4.9
2018-04-02T00:24:47.920Z,4.9
2018-04-02T00:25:38.691Z,4.9
2018-04-02T00:26:28.745Z,4.9
2018-04-02T00:27:18.803Z,5
2018-04-02T00:28:08.892Z,4.9
2018-04-02T00:28:58.620Z,5
2018-04-02T00:29:48.707Z,4.9
2018-04-02T00:30:38.823Z,4.9
2018-04-02T00:31:29.191Z,4.8
2018-04-02T00:32:18.958Z,4.9
2018-04-02T00:33:08.450Z,4.8
2018-04-02T00:33:59.584Z,4.8
2018-04-02T00:34:49.070Z,4.9
2018-04-02T00:35:39.401Z,4.9
2018-04-02T00:36:29.445Z,5
2018-04-02T00:37:19.792Z,4.9
2018-04-02T00:38:09.859Z,4.9
2018-04-02T00:38:59.927Z,4.9
2018-04-02T00:39:49.962Z,4.9
2018-04-02T00:40:39.472Z,4.8
2018-04-02T00:41:29.819Z,4.8
2018-04-02T00:42:19.937Z,4.8
2018-04-02T00:43:09.969Z,4.8
2018-04-02T00:44:00.001Z,4.8
2018-04-02T00:44:50.084Z,4.8
2018-04-02T00:45:40.234Z,4.8
2018-04-02T00:46:30.477Z,4.8
2018-04-02T00:47:20.541Z,4.8
2018-04-02T00:48:10.601Z,4.8
2018-04-02T00:49:00.661Z,4.8
2018-04-02T00:49:50.418Z,4.7
2018-04-02T00:50:40.764Z,4.8
2018-04-02T00:51:30.276Z,4.8
2018-04-02T00:52:20.590Z,4.7
2018-04-02T00:53:10.971Z,4.6
2018-04-02T00:54:01.021Z,4.6
2018-04-02T00:54:51.081Z,4.7
2018-04-02T00:55:40.291Z,4.6
2018-04-02T00:56:31.193Z,4.6
2018-04-02T00:57:20.493Z,4.6
2018-04-02T00:58:11.063Z,4.6
2018-04-02T00:59:00.835Z,4.6
2018-04-02T00:59:50.967Z,4.6
2018-04-02T01:00:40.631Z,4.6
2018-04-02T01:01:30.973Z,4.6
2018-04-02T01:02:21.057Z,4.6
2018-04-02T01:03:11.415Z,4.6
2018-04-02T01:04:00.965Z,4.5
2018-04-02T01:04:51.823Z,4.4
2018-04-02T01:05:41.388Z,4.3
2018-04-02T01:06:31.163Z,4.2
2018-04-02T01:07:21.393Z,4.1
2018-04-02T01:08:11.477Z,4
2018-04-02T01:09:01.542Z,3.9
2018-04-02T01:09:51.625Z,3.9
2018-04-02T01:10:41.550Z,3.9
2018-04-02T01:11:31.530Z,3.9
2018-04-02T01:12:22.365Z,3.9
2018-04-02T01:13:11.842Z,3.9
2018-04-02T01:14:01.908Z,3.8
2018-04-02T01:14:52.042Z,3.9
2018-04-02T01:15:42.323Z,3.8
2018-04-02T01:16:32.398Z,3.8
2018-04-02T01:17:22.150Z,3.8
2018-04-02T01:18:12.492Z,3.8
2018-04-02T01:19:01.777Z,3.8
2018-04-02T01:19:52.915Z,3.9
2018-04-02T01:20:41.807Z,4
2018-04-02T01:21:32.147Z,4.1
2018-04-02T01:22:22.521Z,4.1
2018-04-02T01:23:12.084Z,4.1
2018-04-02T01:24:02.728Z,4.1
2018-04-02T01:24:52.996Z,4.1
2018-04-02T01:25:43.044Z,4.1
2018-04-02T01:26:32.509Z,4.1
2018-04-02T01:27:23.161Z,4.1
2018-04-02T01:28:12.748Z,4.1
2018-04-02T01:29:03.013Z,4.1
2018-04-02T01:29:53.057Z,4.1
2018-04-02T01:30:43.183Z,4.1
2018-04-02T01:31:33.538Z,3.9
2018-04-02T01:32:23.256Z,3.8
2018-04-02T01:33:13.084Z,3.8
2018-04-02T01:34:03.461Z,4
2018-04-02T01:34:53.709Z,4.1
2018-04-02T01:35:43.664Z,4.1
2018-04-02T01:36:34.088Z,3.9
2018-04-02T01:37:23.888Z,3.8
2018-04-02T01:38:13.071Z,3.7
2018-04-02T01:39:04.012Z,3.7
2018-04-02T01:39:53.864Z,3.7
2018-04-02T01:40:44.196Z,3.7
2018-04-02T01:41:34.493Z,3.8
2018-04-02T01:42:24.543Z,3.8
2018-04-02T01:43:14.329Z,3.8
2018-04-02T01:44:04.177Z,3.8
2018-04-02T01:44:53.955Z,3.9
2018-04-02T01:45:44.303Z,4
2018-04-02T01:46:34.558Z,4.1
2018-04-02T01:47:24.052Z,4.1
2018-04-02T01:48:14.378Z,4.1
2018-04-02T01:49:05.033Z,4
2018-04-02T01:49:55.078Z,3.9
2018-04-02T01:50:45.200Z,3.8
2018-04-02T01:51:34.947Z,3.7
2018-04-02T01:52:25.252Z,3.6
2018-04-02T01:53:14.753Z,3.5
2018-04-02T01:54:05.100Z,3.5
2018-04-02T01:54:55.179Z,3.4
2018-04-02T01:55:44.949Z,3.4
2018-04-02T01:56:35.287Z,3.3
2018-04-02T01:57:24.492Z,3.3
2018-04-02T01:58:15.410Z,3.2
2018-04-02T01:59:04.785Z,3.2
2018-04-02T01:59:55.355Z,3.2
2018-04-02T02:00:45.310Z,3.2
2018-04-02T02:01:35.394Z,3.2
2018-04-02T02:02:25.732Z,3.2
2018-04-02T02:03:15.475Z,3.3
2018-04-02T02:04:05.550Z,3.3
2018-04-02T02:04:55.314Z,3.3
2018-04-02T02:05:45.476Z,3.4
2018-04-02T02:06:35.846Z,3.4
2018-04-02T02:07:25.599Z,3.4
2018-04-02T02:08:15.861Z,3.5
2018-04-02T02:09:05.760Z,3.5
2018-04-02T02:09:55.856Z,3.6
2018-04-02T02:10:46.331Z,3.6
2018-04-02T02:11:35.907Z,3.6
2018-04-02T02:12:26.169Z,3.7
2018-04-02T02:13:16.026Z,3.8
2018-04-02T02:14:06.092Z,3.8
2018-04-02T02:14:55.856Z,3.7
2018-04-02T02:15:46.098Z,3.6
2018-04-02T02:16:36.263Z,3.6
2018-04-02T02:17:26.235Z,3.6
2018-04-02T02:18:16.306Z,3.6
2018-04-02T02:19:06.664Z,3.6
2018-04-02T02:19:56.395Z,3.6
2018-04-02T02:20:46.755Z,3.6
2018-04-02T02:21:36.703Z,3.6
2018-04-02T02:22:26.777Z,3.6
2018-04-02T02:23:17.061Z,3.6
2018-04-02T02:24:07.116Z,3.6
2018-04-02T02:24:57.056Z,3.6
2018-04-02T02:25:47.417Z,3.5
2018-04-02T02:26:36.998Z,3.4
2018-04-02T02:27:27.096Z,3.4
2018-04-02T02:28:17.868Z,3.3
2018-04-02T02:29:06.975Z,3.3
2018-04-02T02:29:57.442Z,3.3
2018-04-02T02:30:47.610Z,3.3
2018-04-02T02:31:37.279Z,3.3
2018-04-02T02:32:27.607Z,3.2
2018-04-02T02:33:17.757Z,3.2
2018-04-02T02:34:07.754Z,3.2
2018-04-02T02:34:57.467Z,3.2
2018-04-02T02:35:47.279Z,3.2
2018-04-02T02:36:37.647Z,3.3
2018-04-02T02:37:28.367Z,3.3
2018-04-02T02:38:18.624Z,3.2
2018-04-02T02:39:08.125Z,3.1
2018-04-02T02:39:58.513Z,3.2
2018-04-02T02:40:48.236Z,3.1
2018-04-02T02:41:38.566Z,3.1
2018-04-02T02:42:28.333Z,3.1
2018-04-02T02:43:18.114Z,3.1
2018-04-02T02:44:08.475Z,3
2018-04-02T02:44:58.933Z,3
2018-04-02T02:45:48.877Z,3
2018-04-02T02:46:38.657Z,3.1
2018-04-02T02:47:29.295Z,3.1
2018-04-02T02:48:18.766Z,3.1
2018-04-02T02:49:08.546Z,3
2018-04-02T02:49:59.480Z,2.9
2018-04-02T02:50:49.541Z,2.9
2018-04-02T02:51:39.305Z,2.8
2018-04-02T02:52:29.639Z,2.8
2018-04-02T02:53:19.710Z,2.8
2018-04-02T02:54:09.774Z,2.8
2018-04-02T02:54:59.572Z,2.8
2018-04-02T02:55:49.589Z,2.8
2018-04-02T02:56:39.943Z,2.8
2018-04-02T02:57:30.001Z,2.8
2018-04-02T02:58:19.491Z,2.9
2018-04-02T02:59:09.861Z,2.9
2018-04-02T02:59:59.928Z,3
2018-04-02T03:00:50.248Z,3
2018-04-02T03:01:40.310Z,3
2018-04-02T03:02:30.116Z,3
2018-04-02T03:03:20.778Z,3
2018-04-02T03:04:10.207Z,3.1
2018-04-02T03:05:00.019Z,3.1
2018-04-02T03:05:49.759Z,3.1
2018-04-02T03:06:40.120Z,3.1
2018-04-02T03:07:30.443Z,3.1
2018-04-02T03:08:20.249Z,3.1
2018-04-02T03:09:10.625Z,3.2
2018-04-02T03:10:00.438Z,3.3
2018-04-02T03:10:49.716Z,3.3
2018-04-02T03:11:40.276Z,3.3
2018-04-02T03:12:30.046Z,3.4
2018-04-02T03:13:20.293Z,3.4
2018-04-02T03:14:10.263Z,3.4
2018-04-02T03:15:01.018Z,3.5
2018-04-02T03:15:51.093Z,3.5
2018-04-02T03:16:40.745Z,3.6
2018-04-02T03:17:30.592Z,3.5
2018-04-02T03:18:20.753Z,3.6
2018-04-02T03:19:10.631Z,3.6
2018-04-02T03:20:01.280Z,3.6
2018-04-02T03:20:50.836Z,3.6
2018-04-02T03:21:41.000Z,3.6
2018-04-02T03:22:31.850Z,3.6
2018-04-02T03:23:21.433Z,3.7
2018-04-02T03:24:11.691Z,3.7
2018-04-02T03:25:01.229Z,3.8
2018-04-02T03:25:51.589Z,3.8
2018-04-02T03:26:41.639Z,3.8
2018-04-02T03:27:31.907Z,3.8
2018-04-02T03:28:21.695Z,3.9
2018-04-02T03:29:12.070Z,3.9
2018-04-02T03:30:01.233Z,3.8
2018-04-02T03:30:52.017Z,3.9
2018-04-02T03:31:41.646Z,3.9
2018-04-02T03:32:32.001Z,3.9
2018-04-02T03:33:22.063Z,3.9
2018-04-02T03:34:11.534Z,3.9
2018-04-02T03:35:02.749Z,3.9
2018-04-02T03:35:52.524Z,3.8
2018-04-02T03:36:42.607Z,3.8
2018-04-02T03:37:32.351Z,3.8
2018-04-02T03:38:22.228Z,3.8
2018-04-02T03:39:12.463Z,3.8
2018-04-02T03:40:02.841Z,3.8
2018-04-02T03:40:52.409Z,3.9
2018-04-02T03:41:42.643Z,3.8
2018-04-02T03:42:32.514Z,3.8
2018-04-02T03:43:23.071Z,3.8
2018-04-02T03:44:12.861Z,3.8
2018-04-02T03:45:03.166Z,3.8
2018-04-02T03:45:52.676Z,3.9
2018-04-02T03:46:43.311Z,3.9
2018-04-02T03:47:33.176Z,3.9
2018-04-02T03:48:23.698Z,4
2018-04-02T03:49:13.480Z,4.1
2018-04-02T03:50:03.852Z,4.2
2018-04-02T03:50:53.320Z,4.3
2018-04-02T03:51:43.968Z,4.4
2018-04-02T03:52:33.739Z,4.6
2018-04-02T03:53:23.515Z,4.8
2018-04-02T03:54:13.860Z,4.8
2018-04-02T03:55:03.922Z,4.8
2018-04-02T03:55:53.961Z,5
2018-04-02T03:56:44.045Z,5
2018-04-02T03:57:34.388Z,5.1
2018-04-02T03:58:24.205Z,5.1
2018-04-02T03:59:13.647Z,5.2
2018-04-02T04:00:04.565Z,5.2
2018-04-02T04:00:54.330Z,5.3
2018-04-02T04:01:44.685Z,5.1
2018-04-02T04:02:34.203Z,5.2
2018-04-02T04:03:24.524Z,5.2
2018-04-02T04:04:14.850Z,5.3
2018-04-02T04:05:04.673Z,5.3
2018-04-02T04:05:54.702Z,5.3
2018-04-02T04:06:45.042Z,5.3
2018-04-02T04:07:34.526Z,5.3
2018-04-02T04:08:24.392Z,5.3
2018-04-02T04:09:14.934Z,5.3
2018-04-02T04:10:04.514Z,5.3
2018-04-02T04:10:55.059Z,5.4
2018-04-02T04:11:44.831Z,5.4
2018-04-02T04:12:35.474Z,5.4
2018-04-02T04:13:25.055Z,5.4
2018-04-02T04:14:15.331Z,5.4
2018-04-02T04:15:05.398Z,5.4
2018-04-02T04:15:55.141Z,5.3
2018-04-02T04:16:45.483Z,5.3
2018-04-02T04:17:35.283Z,5.3
2018-04-02T04:18:25.327Z,5.3
2018-04-02T04:19:15.677Z,5.3
2018-04-02T04:20:05.459Z,5.3
2018-04-02T04:20:55.173Z,5.3
2018-04-02T04:21:45.573Z,5.4
2018-04-02T04:22:35.426Z,5.4
2018-04-02T04:23:25.596Z,5.4
2018-04-02T04:24:15.264Z,5.4
2018-04-02T04:25:05.413Z,5.4
2018-04-02T04:25:55.466Z,5.5
2018-04-02T04:26:45.942Z,5.6
2018-04-02T04:27:36.066Z,5.6
2018-04-02T04:28:26.050Z,5.7
2018-04-02T04:29:15.828Z,5.7
2018-04-02T04:30:06.181Z,5.7
2018-04-02T04:30:56.531Z,5.7
2018-04-02T04:31:46.686Z,5.7
2018-04-02T04:32:36.725Z,5.8
2018-04-02T04:33:26.505Z,5.8
2018-04-02T04:34:16.552Z,5.8
2018-04-02T04:35:05.930Z,5.8
2018-04-02T04:35:56.703Z,5.8
2018-04-02T04:36:46.717Z,5.8
2018-04-02T04:37:36.712Z,5.7
2018-04-02T04:38:27.175Z,5.6
2018-04-02T04:39:16.525Z,5.6
2018-04-02T04:40:06.507Z,5.7
2018-04-02T04:40:56.749Z,5.6
2018-04-02T04:41:46.726Z,5.6
2018-04-02T04:42:37.369Z,5.6
2018-04-02T04:43:26.648Z,5.6
2018-04-02T04:44:17.277Z,5.7
2018-04-02T04:45:06.979Z,5.7
2018-04-02T04:45:57.712Z,5.7
2018-04-02T04:46:47.160Z,5.7
2018-04-02T04:47:37.540Z,5.7
2018-04-02T04:48:27.389Z,5.7
2018-04-02T04:49:17.582Z,5.6
2018-04-02T04:50:07.127Z,5.6
2018-04-02T04:50:57.671Z,5.6
2018-04-02T04:51:47.515Z,5.8
2018-04-02T04:52:37.965Z,5.8
2018-04-02T04:53:28.171Z,5.8
2018-04-02T04:54:17.908Z,5.7
2018-04-02T04:55:07.778Z,5.8
2018-04-02T04:55:58.041Z,5.8
2018-04-02T04:56:48.396Z,5.8
2018-04-02T04:57:38.269Z,5.8
2018-04-02T04:58:27.726Z,5.8
2018-04-02T04:59:18.394Z,5.9
2018-04-02T05:00:08.632Z,5.9
2018-04-02T05:00:58.511Z,5.9
2018-04-02T05:01:48.479Z,5.9
2018-04-02T05:02:38.911Z,5.9
2018-04-02T05:03:28.589Z,5.9
2018-04-02T05:04:18.364Z,5.8
2018-04-02T05:05:09.008Z,5.9
2018-04-02T05:05:58.843Z,5.8
2018-04-02T05:06:48.535Z,5.8
2018-04-02T05:07:39.185Z,5.8
2018-04-02T05:08:28.849Z,5.8
2018-04-02T05:09:19.283Z,5.8
2018-04-02T05:10:09.361Z,5.9
2018-04-02T05:10:59.137Z,5.9
2018-04-02T05:11:48.894Z,5.8
2018-04-02T05:12:39.583Z,5.8
2018-04-02T05:13:29.100Z,5.9
2018-04-02T05:14:19.472Z,5.9
2018-04-02T05:15:08.748Z,5.9
2018-04-02T05:15:59.575Z,5.9
2018-04-02T05:16:49.444Z,5.9
2018-04-02T05:17:39.356Z,5.9
2018-04-02T05:18:29.688Z,5.9
2018-04-02T05:19:20.012Z,5.9
2018-04-02T05:20:10.381Z,5.9
2018-04-02T05:21:00.140Z,5.9
2018-04-02T05:21:49.917Z,6
2018-04-02T05:22:40.327Z,5.9
2018-04-02T05:23:30.032Z,5.9
2018-04-02T05:24:20.109Z,5.9
2018-04-02T05:25:10.448Z,5.9
2018-04-02T05:26:00.207Z,5.8
2018-04-02T05:26:50.363Z,5.7
2018-04-02T05:27:40.882Z,5.6
2018-04-02T05:28:30.982Z,5.6
2018-04-02T05:29:20.742Z,5.6
2018-04-02T05:30:11.077Z,5.6
2018-04-02T05:31:01.283Z,5.6
2018-04-02T05:31:51.201Z,5.6
2018-04-02T05:32:40.976Z,5.6
2018-04-02T05:33:31.052Z,5.6
2018-04-02T05:34:21.376Z,5.6
2018-04-02T05:35:11.163Z,5.6
2018-04-02T05:36:01.246Z,5.6
2018-04-02T05:36:51.576Z,5.6
2018-04-02T05:37:41.070Z,5.6
2018-04-02T05:38:31.704Z,5.6
2018-04-02T05:39:21.274Z,5.6
2018-04-02T05:40:11.040Z,5.6
2018-04-02T05:41:01.007Z,5.6
2018-04-02T05:41:51.083Z,5.6
2018-04-02T05:42:41.423Z,5.6
2018-04-02T05:43:31.484Z,5.6
2018-04-02T05:44:21.835Z,5.6
2018-04-02T05:45:11.255Z,5.6
2018-04-02T05:46:01.762Z,5.6
2018-04-02T05:46:52.020Z,5.6
2018-04-02T05:47:41.575Z,5.6
2018-04-02T05:48:31.639Z,5.6
2018-04-02T05:49:22.085Z,5.6
2018-04-02T05:50:12.545Z,5.6
2018-04-02T05:51:02.037Z,5.6
2018-04-02T05:51:52.457Z,5.6
2018-04-02T05:52:42.030Z,5.6
2018-04-02T05:53:32.302Z,5.6
2018-04-02T05:54:22.537Z,5.6
2018-04-02T05:55:12.507Z,5.7
2018-04-02T05:56:02.494Z,5.7
2018-04-02T05:56:52.461Z,5.7
2018-04-02T05:57:42.212Z,5.8
2018-04-02T05:58:32.682Z,5.8
2018-04-02T05:59:23.204Z,5.8
2018-04-02T06:00:12.691Z,5.8
2018-04-02T06:01:02.540Z,5.8
2018-04-02T06:01:53.104Z,5.8
2018-04-02T06:02:42.854Z,5.8
2018-04-02T06:03:32.724Z,5.8
2018-04-02T06:04:23.585Z,5.8
2018-04-02T06:05:12.894Z,5.9
2018-04-02T06:06:03.108Z,5.9
2018-04-02T06:06:53.747Z,5.9
2018-04-02T06:07:43.016Z,6
2018-04-02T06:08:33.013Z,6.1
2018-04-02T06:09:23.155Z,6.3
2018-04-02T06:10:13.513Z,6.3
2018-04-02T06:11:03.861Z,6.3
2018-04-02T06:11:53.337Z,6.3
2018-04-02T06:12:43.101Z,6.3
2018-04-02T06:13:33.652Z,6.3
2018-04-02T06:14:23.533Z,6.3
2018-04-02T06:15:13.668Z,6.3
2018-04-02T06:16:03.477Z,6.3
2018-04-02T06:16:54.003Z,6.4
2018-04-02T06:17:44.260Z,6.4
2018-04-02T06:18:34.314Z,6.5
2018-04-02T06:19:24.090Z,6.6
2018-04-02T06:20:13.816Z,6.6
2018-04-02T06:21:04.266Z,6.8
2018-04-02T06:21:54.530Z,6.8
2018-04-02T06:22:44.407Z,6.9
2018-04-02T06:23:34.663Z,6.9
2018-04-02T06:24:25.023Z,7.1
2018-04-02T06:25:14.798Z,7.1
2018-04-02T06:26:04.553Z,7.2
2018-04-02T06:26:54.613Z,7.2
2018-04-02T06:27:44.572Z,7.3
2018-04-02T06:28:35.037Z,7.2
2018-04-02T06:29:24.895Z,7.2
2018-04-02T06:30:14.937Z,7.1
2018-04-02T06:31:05.300Z,7.1
2018-04-02T06:31:54.777Z,7.1
2018-04-02T06:32:44.719Z,7
2018-04-02T06:33:34.806Z,7
2018-04-02T06:34:24.958Z,6.9
2018-04-02T06:35:15.055Z,6.9
2018-04-02T06:36:05.366Z,6.9
2018-04-02T06:36:55.594Z,6.9
2018-04-02T06:37:45.792Z,6.8
2018-04-02T06:38:35.750Z,6.7
2018-04-02T06:39:25.530Z,6.7
2018-04-02T06:40:15.587Z,6.6
2018-04-02T06:41:05.033Z,6.6
2018-04-02T06:41:55.633Z,6.5
2018-04-02T06:42:45.558Z,6.5
2018-04-02T06:43:35.835Z,6.5
2018-04-02T06:44:25.976Z,6.4
2018-04-02T06:45:15.802Z,6.4
2018-04-02T06:46:06.279Z,6.3
2018-04-02T06:46:56.052Z,6.3
2018-04-02T06:47:45.923Z,6.3
2018-04-02T06:48:36.468Z,6.3
2018-04-02T06:49:26.826Z,6.3
2018-04-02T06:50:16.873Z,6.3
2018-04-02T06:51:06.650Z,6.4
2018-04-02T06:51:56.801Z,6.4
2018-04-02T06:52:46.281Z,6.4
2018-04-02T06:53:36.039Z,6.4
2018-04-02T06:54:26.704Z,6.5
2018-04-02T06:55:17.042Z,6.4
2018-04-02T06:56:06.721Z,6.4
2018-04-02T06:56:56.781Z,6.4
2018-04-02T06:57:47.141Z,6.4
2018-04-02T06:58:36.701Z,6.4
2018-04-02T06:59:27.248Z,6.4
2018-04-02T07:00:16.913Z,6.5
2018-04-02T07:01:07.257Z,6.6
2018-04-02T07:01:56.846Z,6.6
2018-04-02T07:02:47.369Z,6.6
2018-04-02T07:03:36.654Z,6.6
2018-04-02T07:04:27.444Z,6.6
2018-04-02T07:05:17.757Z,6.8
2018-04-02T07:06:07.530Z,6.8
2018-04-02T07:06:57.505Z,6.8
2018-04-02T07:07:47.913Z,6.8
2018-04-02T07:08:37.433Z,6.8
2018-04-02T07:09:27.567Z,6.8
2018-04-02T07:10:18.328Z,6.8
2018-04-02T07:11:07.599Z,6.7
2018-04-02T07:11:57.854Z,6.7
2018-04-02T07:12:47.316Z,6.7
2018-04-02T07:13:37.669Z,6.7
2018-04-02T07:14:28.209Z,6.8
2018-04-02T07:15:18.495Z,6.8
2018-04-02T07:16:08.467Z,6.8
2018-04-02T07:16:58.025Z,6.9
2018-04-02T07:17:48.684Z,6.9
2018-04-02T07:18:38.516Z,6.9
2018-04-02T07:19:28.777Z,7
2018-04-02T07:20:18.452Z,7
2018-04-02T07:21:08.339Z,7.1
2018-04-02T07:21:58.303Z,7.2
2018-04-02T07:22:48.434Z,7.2
2018-04-02T07:23:38.596Z,7.2
2018-04-02T07:24:28.862Z,7.2
2018-04-02T07:25:18.824Z,7.1
2018-04-02T07:26:08.652Z,7.2
2018-04-02T07:26:59.020Z,7.3
2018-04-02T07:27:48.412Z,7.3
2018-04-02T07:28:39.154Z,7.2
2018-04-02T07:29:29.273Z,7.2
2018-04-02T07:30:18.593Z,7.1
2018-04-02T07:31:09.531Z,7.2
2018-04-02T07:31:59.372Z,7.3
2018-04-02T07:32:49.649Z,7.4
2018-04-02T07:33:39.098Z,7.6
2018-04-02T07:34:29.377Z,7.8
2018-04-02T07:35:19.533Z,8.3
2018-04-02T07:36:09.729Z,8.4
2018-04-02T07:36:59.654Z,8.5
2018-04-02T07:37:49.998Z,8.4
2018-04-02T07:38:40.068Z,8.7
2018-04-02T07:39:30.238Z,8.6
2018-04-02T07:40:20.188Z,8.3
2018-04-02T07:41:09.661Z,8.1
2018-04-02T07:42:00.307Z,8
2018-04-02T07:42:50.436Z,7.9
2018-04-02T07:43:40.232Z,7.9
2018-04-02T07:44:30.205Z,8.1
2018-04-02T07:45:20.654Z,8.4
2018-04-02T07:46:10.114Z,8.6
2018-04-02T07:46:59.963Z,8.9
2018-04-02T07:47:50.047Z,8.7
2018-04-02T07:48:41.086Z,8.7
2018-04-02T07:49:30.930Z,8.7
2018-04-02T07:50:20.689Z,8.6
2018-04-02T07:51:10.390Z,8.6
2018-04-02T07:52:00.722Z,8.5
2018-04-02T07:52:50.474Z,8.6
2018-04-02T07:53:40.941Z,8.8
2018-04-02T07:54:31.203Z,8.9
2018-04-02T07:55:21.260Z,9.1
2018-04-02T07:56:11.048Z,9.2
2018-04-02T07:57:01.376Z,9.4
2018-04-02T07:57:51.032Z,9.3
2018-04-02T07:58:41.092Z,9.4
2018-04-02T07:59:31.292Z,9.4
2018-04-02T08:00:21.126Z,9.3
2018-04-02T08:01:11.392Z,9.4
2018-04-02T08:02:01.260Z,9.6
2018-04-02T08:02:51.707Z,9.4
2018-04-02T08:03:42.166Z,9.2
2018-04-02T08:04:31.330Z,9.2
2018-04-02T08:05:21.479Z,9.2
2018-04-02T08:06:11.829Z,9.1
2018-04-02T08:07:01.415Z,9.2
2018-04-02T08:07:51.952Z,9.3
2018-04-02T08:08:41.843Z,9.4
2018-04-02T08:09:32.081Z,9.4
2018-04-02T08:10:22.032Z,9.5
2018-04-02T08:11:12.497Z,9.6
2018-04-02T08:12:01.868Z,9.5
2018-04-02T08:12:52.027Z,9.2
2018-04-02T08:13:41.939Z,8.9
2018-04-02T08:14:32.426Z,8.9
2018-04-02T08:15:22.121Z,9.3
2018-04-02T08:16:12.467Z,9.4
2018-04-02T08:17:02.257Z,9.5
2018-04-02T08:17:53.056Z,9.6
2018-04-02T08:18:42.635Z,9.8
2018-04-02T08:19:32.723Z,9.8
2018-04-02T08:20:22.767Z,10.1
2018-04-02T08:21:13.114Z,10.3
2018-04-02T08:22:03.181Z,10.3
2018-04-02T08:22:53.512Z,10.2
2018-04-02T08:23:43.016Z,10.4
2018-04-02T08:24:33.169Z,10.3
2018-04-02T08:25:23.181Z,10
2018-04-02T08:26:13.321Z,10.1
2018-04-02T08:27:03.265Z,9.8
2018-04-02T08:27:53.032Z,9.7
2018-04-02T08:28:43.188Z,9.6
2018-04-02T08:29:33.739Z,9.5
2018-04-02T08:30:23.311Z,9.5
2018-04-02T08:31:13.572Z,9.3
2018-04-02T08:32:03.912Z,9.1
2018-04-02T08:32:54.246Z,9.1
2018-04-02T08:33:43.853Z,9.1
2018-04-02T08:34:33.419Z,9.1
2018-04-02T08:35:23.573Z,9.1
2018-04-02T08:36:14.513Z,9.1
2018-04-02T08:37:04.290Z,9.2
2018-04-02T08:37:54.394Z,9.3
2018-04-02T08:38:43.975Z,9.4
2018-04-02T08:39:34.182Z,9.3
2018-04-02T08:40:24.531Z,9.3
2018-04-02T08:41:14.111Z,9.4
2018-04-02T08:42:04.353Z,9.6
2018-04-02T08:42:54.431Z,9.8
2018-04-02T08:43:44.191Z,10
2018-04-02T08:44:34.044Z,10.2
2018-04-02T08:45:24.498Z,10.4
2018-04-02T08:46:15.231Z,10.6
2018-04-02T08:47:05.066Z,10.4
2018-04-02T08:47:54.777Z,10.3
2018-04-02T08:48:45.127Z,10.1
2018-04-02T08:49:35.217Z,9.8
2018-04-02T08:50:25.551Z,9.9
2018-04-02T08:51:15.361Z,9.9
2018-04-02T08:52:05.091Z,10.1
2018-04-02T08:52:55.525Z,10.1
2018-04-02T08:53:45.496Z,10
2018-04-02T08:54:34.880Z,9.9
2018-04-02T08:55:25.244Z,9.8
2018-04-02T08:56:15.518Z,9.9
2018-04-02T08:57:06.036Z,9.9
2018-04-02T08:57:55.530Z,10.2
2018-04-02T08:58:45.272Z,10.1
2018-04-02T08:59:35.945Z,9.8
2018-04-02T09:00:25.530Z,9.8
2018-04-02T09:01:15.855Z,9.8
2018-04-02T09:02:05.910Z,10.1
2018-04-02T09:02:55.393Z,10.4
2018-04-02T09:03:46.235Z,10.6
2018-04-02T09:04:36.007Z,10.8
2018-04-02T09:05:26.088Z,11.4
2018-04-02T09:06:16.250Z,11.1
2018-04-02T09:07:06.107Z,11.4
2018-04-02T09:07:56.818Z,11.4
2018-04-02T09:08:46.615Z,11.4
2018-04-02T09:09:35.880Z,11.6
2018-04-02T09:10:26.439Z,11.9
2018-04-02T09:11:16.488Z,12
2018-04-02T09:12:06.858Z,12.3
2018-04-02T09:12:56.709Z,12.3
2018-04-02T09:13:46.952Z,12.3
2018-04-02T09:14:36.046Z,12.4
2018-04-02T09:15:26.895Z,13
2018-04-02T09:16:17.159Z,12.8
2018-04-02T09:17:06.827Z,12.8
2018-04-02T09:17:57.101Z,12.1
2018-04-02T09:18:46.956Z,11.3
2018-04-02T09:19:37.504Z,11.4
2018-04-02T09:20:27.477Z,11.9
2018-04-02T09:21:17.609Z,12
2018-04-02T09:22:07.017Z,11.9
2018-04-02T09:22:57.174Z,12.2
2018-04-02T09:23:47.503Z,12.3
2018-04-02T09:24:37.270Z,12.3
2018-04-02T09:25:27.872Z,12.4
2018-04-02T09:26:19.039Z,12.4
2018-04-02T09:27:07.771Z,11.6
2018-04-02T09:27:57.049Z,11.4
2018-04-02T09:28:47.479Z,11.3
2018-04-02T09:29:37.863Z,11.3
2018-04-02T09:30:27.816Z,11.1
2018-04-02T09:31:17.979Z,10.9
2018-04-02T09:32:07.831Z,11.1
2018-04-02T09:32:58.410Z,11
2018-04-02T09:33:48.147Z,10.8
2018-04-02T09:34:38.508Z,10.7
2018-04-02T09:35:28.391Z,10.5
2018-04-02T09:36:18.620Z,10.3
2018-04-02T09:37:08.501Z,10.3
2018-04-02T09:37:59.037Z,10.4
2018-04-02T09:38:48.518Z,10.4
2018-04-02T09:39:38.875Z,10.3
2018-04-02T09:40:28.252Z,10.1
2018-04-02T09:41:18.598Z,10.1
2018-04-02T09:42:09.371Z,10.3
2018-04-02T09:42:59.420Z,10.8
2018-04-02T09:43:49.478Z,11.4
2018-04-02T09:44:39.287Z,11.9
2018-04-02T09:45:29.015Z,12.4
2018-04-02T09:46:19.352Z,12.4
2018-04-02T09:47:09.702Z,12.5
2018-04-02T09:47:59.769Z,12.7
2018-04-02T09:48:49.827Z,12.4
2018-04-02T09:49:39.951Z,11.6
2018-04-02T09:50:29.673Z,11.6
2018-04-02T09:51:19.747Z,11.6
2018-04-02T09:52:10.099Z,11.8
2018-04-02T09:52:59.854Z,11.7
2018-04-02T09:53:49.919Z,11.7
2018-04-02T09:54:40.267Z,11.6
2018-04-02T09:55:29.752Z,11.4
2018-04-02T09:56:20.089Z,11.3
2018-04-02T09:57:10.454Z,11.1
2018-04-02T09:58:00.499Z,10.9
2018-04-02T09:58:50.560Z,11.1
2018-04-02T09:59:40.692Z,11
2018-04-02T10:00:30.694Z,10.9
2018-04-02T10:01:20.748Z,11
2018-04-02T10:02:10.816Z,11.4
2018-04-02T10:03:00.584Z,11.4
2018-04-02T10:03:50.646Z,11.5
2018-04-02T10:04:41.473Z,11.4
2018-04-02T10:05:30.771Z,11.4
2018-04-02T10:06:21.108Z,11.3
2018-04-02T10:07:10.917Z,10.9
2018-04-02T10:08:00.993Z,10.8
2018-04-02T10:08:51.006Z,10.8
2018-04-02T10:09:41.116Z,10.8
2018-04-02T10:10:31.362Z,10.9
2018-04-02T10:11:21.491Z,10.9
2018-04-02T10:12:11.561Z,11
2018-04-02T10:13:01.333Z,11.2
2018-04-02T10:13:51.688Z,11.4
2018-04-02T10:14:41.455Z,11.7
2018-04-02T10:15:31.377Z,12.1
2018-04-02T10:16:21.855Z,12
2018-04-02T10:17:11.908Z,11.6
2018-04-02T10:18:02.004Z,11.6
2018-04-02T10:18:52.030Z,11.6
2018-04-02T10:19:41.820Z,11.7
2018-04-02T10:20:32.173Z,11.8
2018-04-02T10:21:21.934Z,11.6
2018-04-02T10:22:11.746Z,11.6
2018-04-02T10:23:01.966Z,11.5
2018-04-02T10:23:52.206Z,11.4
2018-04-02T10:24:41.702Z,11.6
2018-04-02T10:25:31.978Z,11.6
2018-04-02T10:26:22.050Z,11.4
2018-04-02T10:27:12.200Z,11.6
2018-04-02T10:28:02.552Z,11.6
2018-04-02T10:28:52.495Z,11.6
2018-04-02T10:29:42.521Z,12.2
2018-04-02T10:30:32.124Z,12.6
2018-04-02T10:31:22.947Z,13
2018-04-02T10:32:12.281Z,13.1
2018-04-02T10:33:02.701Z,12.8
2018-04-02T10:33:52.874Z,12.3
2018-04-02T10:34:42.938Z,11.8
2018-04-02T10:35:32.406Z,12
2018-04-02T10:36:21.972Z,11.9
2018-04-02T10:37:12.984Z,11.8
2018-04-02T10:38:02.589Z,11.9
2018-04-02T10:38:52.756Z,12.3
2018-04-02T10:39:42.314Z,12.5
2018-04-02T10:40:32.964Z,12.8
2018-04-02T10:41:23.399Z,12.5
2018-04-02T10:42:13.189Z,12.5
2018-04-02T10:43:03.544Z,12.5
2018-04-02T10:43:53.615Z,12.5
2018-04-02T10:44:43.466Z,12.6
2018-04-02T10:45:32.932Z,12.7
2018-04-02T10:46:23.587Z,12.8
2018-04-02T10:47:13.459Z,12.8
2018-04-02T10:48:03.626Z,12.8
2018-04-02T10:48:54.051Z,12.4
2018-04-02T10:49:43.534Z,12.5
2018-04-02T10:50:33.491Z,12.2
2018-04-02T10:51:24.488Z,11.9
2018-04-02T10:52:14.481Z,11.8
2018-04-02T10:53:04.279Z,11.8
2018-04-02T10:53:54.166Z,11.7
2018-04-02T10:54:44.090Z,11.8
2018-04-02T10:55:33.884Z,11.9
2018-04-02T10:56:24.793Z,12.1
2018-04-02T10:57:14.005Z,12.3
2018-04-02T10:58:04.344Z,12
2018-04-02T10:58:54.696Z,11.9
2018-04-02T10:59:44.616Z,12.1
2018-04-02T11:00:34.328Z,11.9
2018-04-02T11:01:24.596Z,11.8
2018-04-02T11:02:14.983Z,11.6
2018-04-02T11:03:04.827Z,11.6
2018-04-02T11:03:55.061Z,11.5
2018-04-02T11:04:44.953Z,11.5
2018-04-02T11:05:34.909Z,11.4
2018-04-02T11:06:24.980Z,11.3
2018-04-02T11:07:15.233Z,11.1
2018-04-02T11:08:05.660Z,11.1
2018-04-02T11:08:55.268Z,11
2018-04-02T11:09:45.005Z,11.1
2018-04-02T11:10:35.568Z,11.1
2018-04-02T11:11:25.620Z,11.2
2018-04-02T11:12:15.107Z,11.1
2018-04-02T11:13:05.757Z,10.9
2018-04-02T11:13:55.507Z,11
2018-04-02T11:14:44.975Z,11.4
2018-04-02T11:15:35.170Z,11.8
2018-04-02T11:16:25.885Z,12.3
2018-04-02T11:17:15.459Z,12.7
2018-04-02T11:18:05.625Z,12.9
2018-04-02T11:18:55.902Z,12.8
2018-04-02T11:19:46.249Z,12.7
2018-04-02T11:20:35.897Z,13.2
2018-04-02T11:21:26.343Z,13.6
2018-04-02T11:22:16.732Z,13.2
2018-04-02T11:23:06.786Z,13.1
2018-04-02T11:23:56.343Z,12.9
2018-04-02T11:24:46.874Z,12.8
2018-04-02T11:25:36.947Z,12.7
2018-04-02T11:26:27.029Z,13.3